Time;durP1;ratioP1;P1;durP2;ratioP2;P2;SDS_P1;SDS_P2;PMS_P1;PMS_P2;Temp;Humidity;BMP_temperature;BMP_pressure;BME280_temperature;BME280_humidity;BME280_pressure;Samples;Min_cycle;Max_cycle;Signal;HPM_P1;HPM_P2
2021/03/11 06:08:12;;;;;;;7.68;3.50;;;;;;;;;;4816010;29;20356;-93
2021/03/11 06:10:43;;;;;;;6.43;3.45;;;;;;;;;;4805003;29;20038;-83
2021/03/11 06:13:47;;;;;;;5.05;2.78;;;;;;;;;;4938922;28;20019;-90
2021/03/11 06:27:35;;;;;;;7.43;2.60;;;;;;;;;;4948092;29;20026;-90
2021/03/11 06:30:33;;;;;;;6.65;3.22;;;;;;;;;;4923777;29;20019;-88
2021/03/11 06:33:32;;;;;;;5.43;2.85;;;;;;;;;;4926303;29;20046;-89
2021/03/11 06:42:31;;;;;;;5.70;2.40;;;;;;;;;;5804048;23;20057;-90
2021/03/11 06:45:26;;;;;;;7.28;3.03;;;;;;;;;;5028493;28;20029;-89
2021/03/11 06:48:28;;;;;;;7.88;2.90;;;;;;;;;;5032895;28;20025;-88
2021/03/11 06:51:20;;;;;;;5.22;2.63;;;;;;;;;;5031039;28;20065;-89
2021/03/11 06:54:08;;;;;;;7.63;2.85;;;;;;;;;;5036626;28;20022;-90
2021/03/11 06:56:53;;;;;;;8.13;2.90;;;;;;;;;;5016117;28;20025;-87
2021/03/11 06:59:39;;;;;;;5.18;2.45;;;;;;;;;;5033625;28;20026;-89
2021/03/11 07:02:37;;;;;;;;;;;;;;;;;;;;;
2021/03/11 07:05:46;;;;;;;5.93;2.58;;;;;;;;;;4955339;28;20042;-90
2021/03/11 07:08:34;;;;;;;15.23;9.68;;;;;;;;;;5015547;28;20384;-85
2021/03/11 07:11:23;;;;;;;4.97;2.80;;;;;;;;;;5007342;28;21083;-87
2021/03/11 07:14:08;;;;;;;7.05;2.90;;;;;;;;;;5018440;28;20021;-84
2021/03/11 07:17:17;;;;;;;4.57;2.50;;;;;;;;;;5021825;28;20067;-87
2021/03/11 07:20:05;;;;;;;5.15;2.67;;;;;;;;;;5047609;28;20026;-88
2021/03/11 07:23:03;;;;;;;4.18;2.40;;;;;;;;;;5012336;28;20028;-89
2021/03/11 07:25:49;;;;;;;5.32;2.90;;;;;;;;;;5046075;28;20069;-87
2021/03/11 07:32:18;;;;;;;7.88;2.53;;;;;;;;;;4968099;28;20117;-89
2021/03/11 07:35:07;;;;;;;4.00;1.90;;;;;;;;;;5011871;28;20029;-91
2021/03/11 07:41:28;;;;;;;6.93;2.45;;;;;;;;;;4975294;28;20053;-91
2021/03/11 07:44:22;;;;;;;3.63;2.13;;;;;;;;;;5005355;28;20482;-88
2021/03/11 07:47:09;;;;;;;5.32;2.15;;;;;;;;;;5001843;28;20034;-87
2021/03/11 07:50:13;;;;;;;4.07;2.05;;;;;;;;;;5019330;28;20025;-89
2021/03/11 07:52:59;;;;;;;5.03;2.20;;;;;;;;;;5008428;28;20030;-89
2021/03/11 07:55:45;;;;;;;3.40;2.22;;;;;;;;;;5021131;28;20010;-86
2021/03/11 07:58:44;;;;;;;6.35;2.15;;;;;;;;;;5037469;28;20013;-88
2021/03/11 08:01:54;;;;;;;3.42;1.95;;;;;;;;;;5018480;28;20045;-87
2021/03/11 08:08:45;;;;;;;;;;;;;;;;;;;;;
2021/03/11 08:11:37;;;;;;;9.13;3.90;;;;;;;;;;4918348;29;20036;-87
2021/03/11 08:14:46;;;;;;;;;;;;;;;;;;;;;
2021/03/11 08:18:03;;;;;;;5.30;2.17;;;;;;;;;;4993285;28;20499;-88
2021/03/11 08:25:15;;;;;;;4.57;2.15;;;;;;;;;;4953148;28;20031;-87
2021/03/11 08:28:11;;;;;;;;;;;;;;;;;;;;;
2021/03/11 08:31:32;;;;;;;3.05;1.90;;;;;;;;;;5015511;28;20033;-90
2021/03/11 08:45:04;;;;;;;4.72;2.08;;;;;;;;;;4829363;29;20064;-89
2021/03/11 08:48:16;;;;;;;8.65;2.15;;;;;;;;;;4908431;28;20061;-89
2021/03/11 08:51:11;;;;;;;;;;;;;;;;;;;;;
2021/03/11 08:54:26;;;;;;;3.55;1.90;;;;;;;;;;4980453;28;20051;-90
2021/03/11 08:57:41;;;;;;;;;;;;;;;;;;;;;
2021/03/11 09:00:46;;;;;;;4.65;1.70;;;;;;;;;;4985608;28;20061;-90
2021/03/11 09:03:35;;;;;;;3.03;1.80;;;;;;;;;;4997662;28;20030;-87
2021/03/11 09:06:21;;;;;;;;;;;;;;;;;;4993308;28;20092;-88
2021/03/11 09:09:06;;;;;;;1.92;1.25;;;;;;;;;;4986822;28;19909;-87
2021/03/11 09:12:01;;;;;;;3.08;1.65;;;;;;;;;;4985191;28;20018;-90
2021/03/11 09:15:05;;;;;;;3.83;1.92;;;;;;;;;;4974532;28;20041;-89
2021/03/11 09:18:14;;;;;;;4.30;1.75;;;;;;;;;;5002850;28;20381;-89
2021/03/11 09:21:23;;;;;;;3.50;1.63;;;;;;;;;;4988554;28;20065;-89
2021/03/11 09:24:16;;;;;;;2.58;1.48;;;;;;;;;;4996809;28;20137;-89
2021/03/11 09:33:46;;;;;;;5.97;1.40;;;;;;;;;;4936220;28;20022;-92
2021/03/11 09:36:31;;;;;;;1.80;1.35;;;;;;;;;;4966353;28;20030;-90
2021/03/11 09:42:08;;;;;;;3.60;1.50;;;;;;;;;;5948546;23;20058;-90
2021/03/11 09:48:43;;;;;;;3.50;1.80;;;;;;;;;;4949094;28;20537;-90
2021/03/11 09:59:09;;;;;;;2.45;1.50;;;;;;;;;;4947889;28;20037;-91
2021/03/11 10:02:11;;;;;;;4.50;1.52;;;;;;;;;;5004259;28;20046;-87
2021/03/11 10:04:57;;;;;;;4.50;1.42;;;;;;;;;;4995940;28;20444;-89
2021/03/11 10:07:42;;;;;;;6.43;3.67;;;;;;;;;;5033463;28;20075;-88
2021/03/11 10:10:37;;;;;;;2.38;1.77;;;;;;;;;;5020515;28;20427;-88
2021/03/11 10:13:35;;;;;;;3.10;1.33;;;;;;;;;;5028461;28;20029;-90
2021/03/11 10:16:32;;;;;;;2.78;1.50;;;;;;;;;;5046231;28;20028;-89
2021/03/11 10:19:27;;;;;;;1.58;1.15;;;;;;;;;;5026157;28;20035;-89
2021/03/11 10:22:17;;;;;;;2.97;1.38;;;;;;;;;;5026859;28;20025;-88
2021/03/11 10:25:13;;;;;;;3.88;1.15;;;;;;;;;;5015859;28;20022;-90
2021/03/11 10:27:58;;;;;;;6.13;1.48;;;;;;;;;;5024791;28;20080;-87
2021/03/11 10:30:43;;;;;;;1.98;1.23;;;;;;;;;;5021690;28;20476;-86
2021/03/11 10:33:52;;;;;;;2.08;1.35;;;;;;;;;;5028057;28;20166;-87
2021/03/11 10:36:53;;;;;;;3.17;1.60;;;;;;;;;;5024992;28;20516;-88
2021/03/11 10:39:58;;;;;;;1.20;1.10;;;;;;;;;;5020923;28;20150;-88
2021/03/11 10:42:45;;;;;;;1.33;0.90;;;;;;;;;;5004621;28;20575;-89
2021/03/11 10:45:39;;;;;;;2.60;1.27;;;;;;;;;;5029341;28;20037;-88
2021/03/11 10:48:25;;;;;;;2.42;1.23;;;;;;;;;;5011505;28;20021;-90
2021/03/11 10:54:29;;;;;;;1.30;1.02;;;;;;;;;;5006969;28;20061;-90
2021/03/11 10:57:19;;;;;;;6.85;2.97;;;;;;;;;;5018168;28;20018;-91
2021/03/11 11:00:08;;;;;;;6.80;2.70;;;;;;;;;;5019378;28;20021;-90
2021/03/11 11:03:00;;;;;;;2.80;1.13;;;;;;;;;;5025473;28;20022;-90
2021/03/11 11:05:48;;;;;;;2.03;1.63;;;;;;;;;;5002245;28;20028;-89
2021/03/11 11:08:34;;;;;;;5.53;1.20;;;;;;;;;;5001771;28;20021;-90
2021/03/11 11:11:25;;;;;;;1.23;0.82;;;;;;;;;;5010864;28;20121;-87
2021/03/11 11:14:16;;;;;;;1.45;0.90;;;;;;;;;;5025662;28;20022;-91
2021/03/11 11:17:03;;;;;;;2.70;1.35;;;;;;;;;;5011535;28;20029;-88
2021/03/11 11:19:50;;;;;;;5.57;1.05;;;;;;;;;;5021469;28;20064;-90
2021/03/11 11:22:35;;;;;;;3.28;0.90;;;;;;;;;;5028612;28;20045;-90
2021/03/11 11:25:21;;;;;;;2.97;1.20;;;;;;;;;;5029348;28;20072;-90
2021/03/11 11:28:07;;;;;;;1.85;1.33;;;;;;;;;;5019947;28;20037;-91
2021/03/11 11:30:53;;;;;;;2.45;1.00;;;;;;;;;;5027630;28;20033;-92
2021/03/11 11:33:38;;;;;;;2.13;1.17;;;;;;;;;;4999696;28;20021;-93
2021/03/11 11:36:24;;;;;;;5.38;1.20;;;;;;;;;;5022450;28;20026;-90
2021/03/11 11:39:09;;;;;;;3.90;1.10;;;;;;;;;;5013465;28;20022;-88
2021/03/11 11:41:54;;;;;;;1.48;0.93;;;;;;;;;;5023454;28;20038;-88
2021/03/11 12:05:23;;;;;;;1.52;1.17;;;;;;;;;;5236288;23;20061;-87
2021/03/11 12:08:11;;;;;;;3.80;1.10;;;;;;;;;;5023656;28;20064;-90
2021/03/11 12:11:02;;;;;;;2.17;1.20;;;;;;;;;;5007495;28;20032;-87
2021/03/11 12:13:48;;;;;;;3.65;1.48;;;;;;;;;;5028366;28;20560;-86
2021/03/11 12:16:43;;;;;;;1.80;1.13;;;;;;;;;;5023200;28;20232;-88
2021/03/11 12:19:29;;;;;;;1.98;0.90;;;;;;;;;;5021411;28;20562;-89
2021/03/11 12:22:14;;;;;;;3.78;1.10;;;;;;;;;;5027943;28;20078;-89
2021/03/11 12:25:15;;;;;;;1.75;1.08;;;;;;;;;;5028649;28;20059;-89
2021/03/11 12:39:03;;;;;;;4.45;1.30;;;;;;;;;;4881442;29;20403;-87
2021/03/11 12:42:29;;;;;;;1.75;1.00;;;;;;;;;;4931984;29;20031;-91
2021/03/11 12:52:49;;;;;;;1.55;1.13;;;;;;;;;;4929820;29;20030;-90
2021/03/11 12:55:31;;;;;;;2.22;1.05;;;;;;;;;;4996081;28;20049;-87
2021/03/11 12:58:17;;;;;;;2.45;1.08;;;;;;;;;;5010668;28;20627;-87
2021/03/11 13:01:02;;;;;;;6.72;4.35;;;;;;;;;;5010803;28;20025;-88
2021/03/11 13:03:48;;;;;;;1.40;1.13;;;;;;;;;;5006354;28;20029;-91
2021/03/11 13:13:42;;;;;;;2.03;1.38;;;;;;;;;;5013727;28;20029;-90
2021/03/11 13:16:28;;;;;;;1.65;0.95;;;;;;;;;;5012363;28;20060;-86
2021/03/11 13:19:16;;;;;;;2.03;1.20;;;;;;;;;;5000499;28;20673;-86
2021/03/11 13:22:01;;;;;;;1.20;1.10;;;;;;;;;;5006920;28;20080;-83
2021/03/11 13:24:47;;;;;;;2.22;1.38;;;;;;;;;;5004540;28;20090;-85
2021/03/11 13:27:32;;;;;;;2.22;1.00;;;;;;;;;;5004900;28;20018;-86
2021/03/11 13:30:17;;;;;;;6.35;1.05;;;;;;;;;;5007443;28;20140;-85
2021/03/11 13:33:03;;;;;;;1.58;1.00;;;;;;;;;;5018765;28;20029;-88
2021/03/11 13:35:48;;;;;;;4.65;0.90;;;;;;;;;;5011819;28;20076;-87
2021/03/11 13:38:33;;;;;;;2.00;0.80;;;;;;;;;;5011347;28;20330;-89
2021/03/11 13:41:19;;;;;;;1.17;1.00;;;;;;;;;;5010287;28;20058;-87
2021/03/11 13:44:05;;;;;;;2.35;1.10;;;;;;;;;;5000033;28;20022;-87
2021/03/11 13:46:50;;;;;;;1.45;1.08;;;;;;;;;;4989113;28;20107;-87
2021/03/11 13:49:35;;;;;;;1.48;0.85;;;;;;;;;;5008037;28;20025;-89
2021/03/11 13:52:21;;;;;;;1.58;1.20;;;;;;;;;;5005617;28;20022;-87
2021/03/11 13:55:09;;;;;;;2.08;1.10;;;;;;;;;;5022579;28;20290;-91
2021/03/11 13:57:55;;;;;;;3.38;1.33;;;;;;;;;;5008082;28;20086;-92
2021/03/11 14:00:40;;;;;;;1.02;0.93;;;;;;;;;;5014917;28;20026;-90
2021/03/11 14:03:26;;;;;;;1.63;0.90;;;;;;;;;;5029343;28;20032;-91
2021/03/11 14:06:11;;;;;;;2.65;1.00;;;;;;;;;;5012868;28;20077;-89
2021/03/11 14:08:57;;;;;;;2.05;0.80;;;;;;;;;;5002127;28;20032;-94
2021/03/11 14:11:47;;;;;;;1.05;0.90;;;;;;;;;;5014856;28;20026;-92
2021/03/11 14:14:32;;;;;;;2.15;1.00;;;;;;;;;;5010701;28;20037;-93
2021/03/11 14:17:21;;;;;;;1.48;1.02;;;;;;;;;;5031433;28;20105;-94
2021/03/11 14:20:25;;;;;;;2.15;0.88;;;;;;;;;;5004663;28;20049;-92
2021/03/11 14:23:21;;;;;;;2.05;1.15;;;;;;;;;;5015289;28;20022;-91
2021/03/11 14:29:52;;;;;;;2.58;0.98;;;;;;;;;;5017928;28;20033;-93
2021/03/11 14:33:14;;;;;;;1.00;0.60;;;;;;;;;;4950528;29;20095;-93
2021/03/11 14:35:59;;;;;;;3.55;1.00;;;;;;;;;;4961320;28;20036;-91
2021/03/11 14:38:46;;;;;;;3.13;0.90;;;;;;;;;;5007382;28;20101;-89
2021/03/11 14:41:33;;;;;;;3.25;0.90;;;;;;;;;;5008100;28;20030;-91
2021/03/11 14:44:19;;;;;;;1.40;1.15;;;;;;;;;;5005418;28;20026;-89
2021/03/11 14:47:08;;;;;;;0.63;0.63;;;;;;;;;;4989608;28;20101;-91
2021/03/11 14:49:53;;;;;;;1.58;0.70;;;;;;;;;;5002461;28;20029;-89
2021/03/11 14:53:08;;;;;;;;;;;;;;;;;;;;;
2021/03/11 15:03:20;;;;;;;1.35;0.90;;;;;;;;;;4900961;29;20032;-91
2021/03/11 15:06:05;;;;;;;1.30;0.70;;;;;;;;;;4934659;29;20047;-88
2021/03/11 15:08:51;;;;;;;0.68;0.68;;;;;;;;;;4974701;28;20092;-88
2021/03/11 15:11:37;;;;;;;1.30;0.90;;;;;;;;;;4979402;28;20057;-90
2021/03/11 15:14:22;;;;;;;2.78;0.93;;;;;;;;;;4993488;28;20011;-89
2021/03/11 15:22:55;;;;;;;1.67;0.80;;;;;;;;;;6063117;23;20013;-89
2021/03/11 15:25:48;;;;;;;1.65;0.80;;;;;;;;;;5011974;28;20076;-91
2021/03/11 15:28:37;;;;;;;1.95;0.70;;;;;;;;;;4991638;28;20704;-88
2021/03/11 15:31:25;;;;;;;2.47;0.90;;;;;;;;;;4980781;28;20022;-89
2021/03/11 15:34:16;;;;;;;1.95;0.70;;;;;;;;;;4988486;28;20037;-89
2021/03/11 16:17:53;;;;;;;11.05;4.78;;;;;;;;;;4991665;28;20408;-92
2021/03/11 16:24:55;;;;;;;;;;;;;;;;;;;;;
2021/03/11 16:27:48;;;;;;;2.20;0.80;;;;;;;;;;4885580;29;20268;-89
2021/03/11 16:30:33;;;;;;;0.75;0.70;;;;;;;;;;4911616;29;20036;-91
2021/03/11 17:20:44;;;;;;;2.53;1.10;;;;;;;;;;5072852;23;20140;-90
2021/03/11 17:40:24;;;;;;;2.05;1.10;;;;;;;;;;4868229;29;20047;-86
2021/03/11 17:43:10;;;;;;;3.45;1.30;;;;;;;;;;4909876;29;20426;-88
2021/03/11 17:46:18;;;;;;;2.80;1.13;;;;;;;;;;5007594;28;20087;-91
2021/03/11 17:49:07;;;;;;;1.88;0.75;;;;;;;;;;5013836;28;20121;-84
2021/03/11 17:52:00;;;;;;;4.63;1.20;;;;;;;;;;5018786;28;20025;-92
2021/03/11 17:54:47;;;;;;;2.67;1.17;;;;;;;;;;4993302;28;20092;-88
2021/03/11 17:57:35;;;;;;;8.07;3.70;;;;;;;;;;5010315;28;20056;-90
2021/03/11 18:00:20;;;;;;;4.28;2.55;;;;;;;;;;5007060;28;20513;-84
2021/03/11 18:03:06;;;;;;;3.42;1.08;;;;;;;;;;5009869;28;20018;-87
2021/03/11 18:05:51;;;;;;;1.73;0.80;;;;;;;;;;5021414;28;20033;-87
2021/03/11 18:08:36;;;;;;;1.60;0.80;;;;;;;;;;5014164;28;20380;-86
2021/03/11 18:11:21;;;;;;;2.58;1.02;;;;;;;;;;5002377;28;20440;-82
2021/03/11 18:14:07;;;;;;;3.22;0.93;;;;;;;;;;5008330;28;20105;-85
2021/03/11 18:16:52;;;;;;;4.00;1.58;;;;;;;;;;5005444;28;20026;-83
2021/03/11 18:19:37;;;;;;;2.92;1.30;;;;;;;;;;4985777;28;20125;-84
2021/03/11 18:22:23;;;;;;;2.60;0.90;;;;;;;;;;5000467;28;20018;-85
2021/03/11 18:25:09;;;;;;;3.67;1.80;;;;;;;;;;5010666;28;20134;-85
2021/03/11 18:27:55;;;;;;;1.48;1.00;;;;;;;;;;5014517;28;20022;-85
2021/03/11 18:30:40;;;;;;;3.10;0.90;;;;;;;;;;5014624;28;20030;-87
2021/03/11 18:33:25;;;;;;;2.97;1.48;;;;;;;;;;5002058;28;20025;-85
2021/03/11 18:36:11;;;;;;;3.90;1.23;;;;;;;;;;5014784;28;20569;-84
2021/03/11 18:38:56;;;;;;;2.38;1.30;;;;;;;;;;5017421;28;20637;-84
2021/03/11 18:41:41;;;;;;;4.65;1.67;;;;;;;;;;4998076;28;20077;-86
2021/03/11 18:44:27;;;;;;;3.60;1.17;;;;;;;;;;5003253;28;20018;-84
2021/03/11 18:47:12;;;;;;;5.78;1.40;;;;;;;;;;5013886;28;20032;-86
2021/03/11 18:49:58;;;;;;;3.35;1.38;;;;;;;;;;5002069;28;20114;-85
2021/03/11 18:52:43;;;;;;;3.20;1.33;;;;;;;;;;4999847;28;20022;-84
2021/03/11 18:55:31;;;;;;;3.28;1.20;;;;;;;;;;5005836;28;20030;-86
2021/03/11 18:58:17;;;;;;;4.32;1.77;;;;;;;;;;5002833;28;20014;-84
2021/03/11 19:01:04;;;;;;;9.65;5.45;;;;;;;;;;5002843;28;20028;-83
2021/03/11 19:03:49;;;;;;;15.02;10.75;;;;;;;;;;5009249;28;20022;-88
2021/03/11 19:06:34;;;;;;;2.40;1.30;;;;;;;;;;5016173;28;20495;-85
2021/03/11 19:09:19;;;;;;;5.43;1.38;;;;;;;;;;5001647;28;20044;-85
2021/03/11 19:12:05;;;;;;;3.40;1.25;;;;;;;;;;4993751;28;20022;-86
2021/03/11 19:14:50;;;;;;;3.58;1.80;;;;;;;;;;4994734;28;20057;-87
2021/03/11 19:17:35;;;;;;;3.75;1.23;;;;;;;;;;4993037;28;20030;-86
2021/03/11 19:20:25;;;;;;;5.47;1.17;;;;;;;;;;5000980;28;20052;-86
2021/03/11 19:23:10;;;;;;;1.63;1.17;;;;;;;;;;5001349;28;20856;-88
2021/03/11 19:25:56;;;;;;;2.97;1.10;;;;;;;;;;4989990;28;20026;-86
2021/03/11 19:28:41;;;;;;;14.98;9.85;;;;;;;;;;5011474;28;21807;-88
2021/03/11 19:31:27;;;;;;;3.50;1.83;;;;;;;;;;5005110;28;20034;-86
2021/03/11 19:34:12;;;;;;;3.10;0.68;;;;;;;;;;4988664;28;20405;-87
2021/03/11 19:36:58;;;;;;;1.63;0.93;;;;;;;;;;5025318;28;20096;-87
2021/03/11 19:39:44;;;;;;;1.83;0.95;;;;;;;;;;5011895;28;20017;-88
2021/03/11 19:42:29;;;;;;;2.40;1.27;;;;;;;;;;5000498;28;20054;-87
2021/03/11 19:45:15;;;;;;;1.83;1.05;;;;;;;;;;5020608;28;20024;-88
2021/03/11 19:48:00;;;;;;;3.13;0.93;;;;;;;;;;5009732;28;20083;-83
2021/03/11 19:50:46;;;;;;;2.08;1.10;;;;;;;;;;5031769;28;20049;-87
2021/03/11 19:53:31;;;;;;;3.17;1.00;;;;;;;;;;5011913;28;20025;-85
2021/03/11 19:56:19;;;;;;;2.20;0.93;;;;;;;;;;5023822;28;20029;-86
2021/03/11 19:59:04;;;;;;;3.38;0.93;;;;;;;;;;4994355;28;20081;-86
2021/03/11 20:01:50;;;;;;;4.28;1.35;;;;;;;;;;5024193;28;20021;-85
2021/03/11 20:04:36;;;;;;;2.72;1.15;;;;;;;;;;5018741;28;20029;-86
2021/03/11 20:07:21;;;;;;;6.75;1.20;;;;;;;;;;5018303;28;20037;-86
2021/03/11 20:10:07;;;;;;;3.90;1.05;;;;;;;;;;5020920;28;20025;-86
2021/03/11 20:12:54;;;;;;;2.55;0.95;;;;;;;;;;5026306;28;20104;-87
2021/03/11 20:15:39;;;;;;;4.53;1.25;;;;;;;;;;4998088;28;20014;-86
2021/03/11 20:18:27;;;;;;;1.95;1.00;;;;;;;;;;5022845;28;20092;-89
2021/03/11 20:21:12;;;;;;;3.28;1.08;;;;;;;;;;5027827;28;20026;-87
2021/03/11 20:23:57;;;;;;;4.68;0.90;;;;;;;;;;5008685;28;20018;-87
2021/03/11 20:26:43;;;;;;;3.40;0.80;;;;;;;;;;5011982;28;20052;-87
2021/03/11 20:29:29;;;;;;;4.55;1.90;;;;;;;;;;5015319;28;20041;-87
2021/03/11 20:32:14;;;;;;;9.05;4.00;;;;;;;;;;5007017;28;20022;-86
2021/03/11 20:34:59;;;;;;;4.60;1.67;;;;;;;;;;5022410;28;20029;-88
2021/03/11 20:37:45;;;;;;;3.47;0.85;;;;;;;;;;5000324;28;20463;-86
2021/03/11 20:40:30;;;;;;;5.15;1.10;;;;;;;;;;5001674;28;20029;-86
2021/03/11 20:43:15;;;;;;;3.15;0.80;;;;;;;;;;5010249;28;20020;-87
2021/03/11 20:46:01;;;;;;;4.47;1.08;;;;;;;;;;5022861;28;20026;-85
2021/03/11 20:48:46;;;;;;;4.28;1.10;;;;;;;;;;4988946;28;20033;-87
2021/03/11 20:51:31;;;;;;;4.38;1.20;;;;;;;;;;4984085;28;20057;-86
2021/03/11 20:54:17;;;;;;;5.50;1.58;;;;;;;;;;4995205;28;20084;-85
2021/03/11 20:57:02;;;;;;;2.97;0.95;;;;;;;;;;4997110;28;20029;-86
2021/03/11 20:59:47;;;;;;;7.75;1.60;;;;;;;;;;5015556;28;20034;-86
2021/03/11 21:02:33;;;;;;;4.35;1.23;;;;;;;;;;5017612;28;20427;-85
2021/03/11 21:05:19;;;;;;;2.58;1.27;;;;;;;;;;4984497;28;20022;-87
2021/03/11 21:08:05;;;;;;;5.57;1.60;;;;;;;;;;4995663;28;20018;-86
2021/03/11 21:10:50;;;;;;;3.03;1.00;;;;;;;;;;5000372;28;20404;-87
2021/03/11 21:13:36;;;;;;;2.80;1.23;;;;;;;;;;5017636;28;20029;-86
2021/03/11 21:16:21;;;;;;;4.43;1.10;;;;;;;;;;5013116;28;20152;-87
2021/03/11 21:19:06;;;;;;;6.85;1.35;;;;;;;;;;4986350;28;20582;-86
2021/03/11 21:21:51;;;;;;;3.40;0.98;;;;;;;;;;5003652;28;20029;-87
2021/03/11 21:24:37;;;;;;;4.38;1.20;;;;;;;;;;4994603;28;20115;-85
2021/03/11 21:27:22;;;;;;;3.38;1.10;;;;;;;;;;5013333;28;20045;-86
2021/03/11 21:30:09;;;;;;;2.13;1.02;;;;;;;;;;5023764;28;20026;-85
2021/03/11 21:32:54;;;;;;;4.30;1.23;;;;;;;;;;5021324;28;20002;-85
2021/03/11 21:35:40;;;;;;;9.65;5.43;;;;;;;;;;5001521;28;20065;-83
2021/03/11 21:38:25;;;;;;;3.97;1.40;;;;;;;;;;4999368;28;20011;-85
2021/03/11 21:41:11;;;;;;;1.45;0.82;;;;;;;;;;4999480;28;20583;-86
2021/03/11 21:43:56;;;;;;;2.05;0.65;;;;;;;;;;5013557;28;20022;-86
2021/03/11 21:46:41;;;;;;;2.58;1.38;;;;;;;;;;4996012;28;20025;-86
2021/03/11 21:49:26;;;;;;;2.38;1.17;;;;;;;;;;5009791;28;20392;-86
2021/03/11 21:52:12;;;;;;;1.42;1.27;;;;;;;;;;4985897;28;20029;-85
2021/03/11 21:54:57;;;;;;;4.68;2.55;;;;;;;;;;4999931;28;20042;-85
2021/03/11 21:57:43;;;;;;;2.10;1.25;;;;;;;;;;4997740;28;20033;-84
2021/03/11 22:00:29;;;;;;;2.25;1.40;;;;;;;;;;5015607;28;20084;-85
2021/03/11 22:03:14;;;;;;;3.95;1.88;;;;;;;;;;5015082;28;20037;-85
2021/03/11 22:05:59;;;;;;;3.83;1.63;;;;;;;;;;4990343;28;20024;-86
2021/03/11 22:08:45;;;;;;;3.17;1.30;;;;;;;;;;4994759;28;20052;-85
2021/03/11 22:11:30;;;;;;;6.88;1.52;;;;;;;;;;4989767;28;20033;-86
2021/03/11 22:14:15;;;;;;;3.80;1.60;;;;;;;;;;5026313;28;20022;-86
2021/03/11 22:17:00;;;;;;;4.35;1.60;;;;;;;;;;5013162;28;20025;-85
2021/03/11 22:19:45;;;;;;;3.20;1.77;;;;;;;;;;4998353;28;20053;-85
2021/03/11 22:22:31;;;;;;;4.93;1.75;;;;;;;;;;4999963;28;20018;-85
2021/03/11 22:25:17;;;;;;;4.82;2.20;;;;;;;;;;5000351;28;20048;-86
2021/03/11 22:28:03;;;;;;;6.35;2.17;;;;;;;;;;5003792;28;20036;-85
2021/03/11 22:30:48;;;;;;;14.27;5.93;;;;;;;;;;4997096;28;20026;-84
2021/03/11 22:33:33;;;;;;;2.72;1.30;;;;;;;;;;4995547;28;20033;-84
2021/03/11 22:36:18;;;;;;;5.55;1.60;;;;;;;;;;4997952;28;20036;-87
2021/03/11 22:39:05;;;;;;;2.00;0.85;;;;;;;;;;5015546;28;20022;-85
2021/03/11 22:41:50;;;;;;;2.92;0.75;;;;;;;;;;5013584;28;20028;-87
2021/03/11 22:44:36;;;;;;;3.70;0.80;;;;;;;;;;4994639;28;20499;-85
2021/03/11 22:47:21;;;;;;;2.53;0.80;;;;;;;;;;5002002;28;20113;-85
2021/03/11 22:50:08;;;;;;;1.27;1.00;;;;;;;;;;4993604;28;20013;-85
2021/03/11 22:52:54;;;;;;;2.15;0.80;;;;;;;;;;4997279;28;20026;-84
2021/03/11 22:55:39;;;;;;;1.83;1.10;;;;;;;;;;5013423;28;20064;-86
2021/03/11 22:58:24;;;;;;;12.00;5.95;;;;;;;;;;5001199;28;20017;-84
2021/03/11 23:01:10;;;;;;;2.08;1.10;;;;;;;;;;4999275;28;20084;-86
2021/03/11 23:03:55;;;;;;;1.52;0.88;;;;;;;;;;4997064;28;20049;-85
2021/03/11 23:06:41;;;;;;;2.47;0.98;;;;;;;;;;5015604;28;20101;-85
2021/03/11 23:09:27;;;;;;;1.73;0.90;;;;;;;;;;5008851;28;20132;-86
2021/03/11 23:12:13;;;;;;;3.10;1.02;;;;;;;;;;5012933;28;20614;-86
2021/03/11 23:14:58;;;;;;;2.30;0.80;;;;;;;;;;5003913;28;20105;-86
2021/03/11 23:17:45;;;;;;;3.60;0.80;;;;;;;;;;4995642;28;20465;-85
2021/03/11 23:20:30;;;;;;;1.00;0.60;;;;;;;;;;4999772;28;20056;-85
2021/03/11 23:23:22;;;;;;;0.95;0.70;;;;;;;;;;5002565;28;20013;-86
2021/03/11 23:26:07;;;;;;;1.10;0.80;;;;;;;;;;4997885;28;20444;-85
2021/03/11 23:28:53;;;;;;;3.03;1.77;;;;;;;;;;4990702;28;20028;-85
2021/03/11 23:31:38;;;;;;;2.65;1.00;;;;;;;;;;5015621;28;20196;-85
2021/03/11 23:34:23;;;;;;;2.15;1.00;;;;;;;;;;4999987;28;20101;-86
2021/03/11 23:37:09;;;;;;;5.88;1.20;;;;;;;;;;5010109;28;20038;-85
2021/03/11 23:39:54;;;;;;;2.30;0.77;;;;;;;;;;5011092;28;20030;-86
2021/03/11 23:42:39;;;;;;;2.42;0.60;;;;;;;;;;5000437;28;20454;-86
2021/03/11 23:45:24;;;;;;;3.00;0.80;;;;;;;;;;5017462;28;20091;-86
2021/03/11 23:48:10;;;;;;;3.00;0.80;;;;;;;;;;4990173;28;20025;-85
2021/03/11 23:50:57;;;;;;;1.45;0.60;;;;;;;;;;5010407;28;20061;-85
2021/03/11 23:53:42;;;;;;;1.45;1.23;;;;;;;;;;4994779;28;20025;-86
2021/03/11 23:56:27;;;;;;;3.22;1.13;;;;;;;;;;5019452;28;20029;-85
2021/03/11 23:59:12;;;;;;;3.15;0.85;;;;;;;;;;4996356;28;20045;-87
